sensor_id;sensor_type;location;lat;lon;timestamp;P1;durP1;ratioP1;P2;durP2;ratioP2
42084;SDS011;27746;52.228;20.890;2024-03-23T00:55:03;36.03;;;18.17;;
42084;SDS011;27746;52.228;20.890;2024-03-23T00:57:30;37.90;;;19.88;;
42084;SDS011;27746;52.228;20.890;2024-03-23T00:59:57;33.80;;;18.08;;
42084;SDS011;27746;52.228;20.890;2024-03-23T01:02:24;38.45;;;17.38;;
42084;SDS011;27746;52.228;20.890;2024-03-23T01:04:51;42.67;;;21.55;;
42084;SDS011;27746;52.228;20.890;2024-03-23T01:07:18;39.17;;;20.30;;
42084;SDS011;27746;52.228;20.890;2024-03-23T01:09:45;42.10;;;20.35;;
42084;SDS011;27746;52.228;20.890;2024-03-23T01:12:13;42.70;;;20.33;;
42084;SDS011;27746;52.228;20.890;2024-03-23T01:14:39;36.70;;;18.83;;
42084;SDS011;27746;52.228;20.890;2024-03-23T01:17:06;40.75;;;21.88;;
42084;SDS011;27746;52.228;20.890;2024-03-23T01:19:32;40.15;;;20.40;;
42084;SDS011;27746;52.228;20.890;2024-03-23T01:22:00;40.05;;;19.80;;
42084;SDS011;27746;52.228;20.890;2024-03-23T01:24:26;38.60;;;20.65;;
42084;SDS011;27746;52.228;20.890;2024-03-23T01:26:53;45.72;;;21.65;;
42084;SDS011;27746;52.228;20.890;2024-03-23T01:29:21;41.13;;;20.73;;
42084;SDS011;27746;52.228;20.890;2024-03-23T01:31:48;42.72;;;20.23;;
42084;SDS011;27746;52.228;20.890;2024-03-23T01:34:14;46.28;;;21.30;;
42084;SDS011;27746;52.228;20.890;2024-03-23T01:36:41;41.63;;;21.77;;
42084;SDS011;27746;52.228;20.890;2024-03-23T01:39:08;42.35;;;21.42;;
42084;SDS011;27746;52.228;20.890;2024-03-23T01:41:35;42.83;;;20.92;;
42084;SDS011;27746;52.228;20.890;2024-03-23T01:44:03;42.85;;;22.25;;
42084;SDS011;27746;52.228;20.890;2024-03-23T01:46:33;44.50;;;21.88;;
42084;SDS011;27746;52.228;20.890;2024-03-23T01:48:59;45.03;;;21.60;;
42084;SDS011;27746;52.228;20.890;2024-03-23T01:51:26;45.17;;;21.55;;
42084;SDS011;27746;52.228;20.890;2024-03-23T01:53:53;45.35;;;21.80;;
42084;SDS011;27746;52.228;20.890;2024-03-23T01:56:21;50.60;;;21.88;;
42084;SDS011;27746;52.228;20.890;2024-03-23T01:58:47;45.20;;;22.38;;
42084;SDS011;27746;52.228;20.890;2024-03-23T02:01:14;42.17;;;21.92;;
42084;SDS011;27746;52.228;20.890;2024-03-23T02:03:41;45.33;;;21.33;;
42084;SDS011;27746;52.228;20.890;2024-03-23T02:06:09;44.53;;;22.83;;
42084;SDS011;27746;52.228;20.890;2024-03-23T02:08:35;49.33;;;23.52;;
42084;SDS011;27746;52.228;20.890;2024-03-23T02:11:02;43.97;;;21.65;;
42084;SDS011;27746;52.228;20.890;2024-03-23T02:13:28;45.85;;;23.05;;
42084;SDS011;27746;52.228;20.890;2024-03-23T02:15:56;47.45;;;22.63;;
42084;SDS011;27746;52.228;20.890;2024-03-23T02:18:23;48.33;;;23.20;;
42084;SDS011;27746;52.228;20.890;2024-03-23T02:20:52;51.78;;;23.65;;
42084;SDS011;27746;52.228;20.890;2024-03-23T02:23:20;50.65;;;23.20;;
42084;SDS011;27746;52.228;20.890;2024-03-23T02:25:49;51.42;;;24.05;;
42084;SDS011;27746;52.228;20.890;2024-03-23T02:28:15;47.97;;;22.58;;
42084;SDS011;27746;52.228;20.890;2024-03-23T02:30:43;45.00;;;22.73;;
42084;SDS011;27746;52.228;20.890;2024-03-23T02:33:09;50.78;;;22.33;;
42084;SDS011;27746;52.228;20.890;2024-03-23T02:35:36;47.17;;;24.45;;
42084;SDS011;27746;52.228;20.890;2024-03-23T02:38:02;46.10;;;22.95;;
42084;SDS011;27746;52.228;20.890;2024-03-23T02:40:30;50.50;;;23.40;;
42084;SDS011;27746;52.228;20.890;2024-03-23T02:42:57;53.83;;;26.38;;
42084;SDS011;27746;52.228;20.890;2024-03-23T02:45:24;46.65;;;24.25;;
42084;SDS011;27746;52.228;20.890;2024-03-23T02:47:51;47.58;;;24.33;;
42084;SDS011;27746;52.228;20.890;2024-03-23T02:50:18;50.75;;;22.88;;
42084;SDS011;27746;52.228;20.890;2024-03-23T02:52:45;48.90;;;23.83;;
42084;SDS011;27746;52.228;20.890;2024-03-23T02:55:11;49.25;;;23.98;;
42084;SDS011;27746;52.228;20.890;2024-03-23T02:57:40;50.97;;;25.10;;
42084;SDS011;27746;52.228;20.890;2024-03-23T03:00:06;49.38;;;24.98;;
42084;SDS011;27746;52.228;20.890;2024-03-23T03:02:35;49.78;;;24.52;;
42084;SDS011;27746;52.228;20.890;2024-03-23T03:05:02;50.08;;;24.90;;
42084;SDS011;27746;52.228;20.890;2024-03-23T03:07:30;50.80;;;24.30;;
42084;SDS011;27746;52.228;20.890;2024-03-23T03:09:56;49.60;;;25.65;;
42084;SDS011;27746;52.228;20.890;2024-03-23T03:12:23;55.70;;;26.55;;
42084;SDS011;27746;52.228;20.890;2024-03-23T03:14:50;55.50;;;24.25;;
42084;SDS011;27746;52.228;20.890;2024-03-23T03:17:18;49.47;;;24.90;;
42084;SDS011;27746;52.228;20.890;2024-03-23T03:19:44;51.08;;;24.70;;
42084;SDS011;27746;52.228;20.890;2024-03-23T03:22:11;49.00;;;25.08;;
42084;SDS011;27746;52.228;20.890;2024-03-23T03:24:38;54.22;;;26.38;;
42084;SDS011;27746;52.228;20.890;2024-03-23T03:27:06;55.05;;;26.30;;
42084;SDS011;27746;52.228;20.890;2024-03-23T03:29:32;57.05;;;25.55;;
42084;SDS011;27746;52.228;20.890;2024-03-23T03:32:02;59.85;;;27.08;;
42084;SDS011;27746;52.228;20.890;2024-03-23T03:34:28;53.20;;;27.02;;
42084;SDS011;27746;52.228;20.890;2024-03-23T03:36:56;52.67;;;25.70;;
42084;SDS011;27746;52.228;20.890;2024-03-23T03:39:22;57.60;;;26.75;;
42084;SDS011;27746;52.228;20.890;2024-03-23T03:41:49;56.67;;;27.17;;
42084;SDS011;27746;52.228;20.890;2024-03-23T03:44:15;56.42;;;25.83;;
42084;SDS011;27746;52.228;20.890;2024-03-23T03:46:42;53.75;;;27.27;;
42084;SDS011;27746;52.228;20.890;2024-03-23T03:49:10;54.33;;;26.67;;
42084;SDS011;27746;52.228;20.890;2024-03-23T03:51:37;49.75;;;26.65;;
42084;SDS011;27746;52.228;20.890;2024-03-23T03:54:03;58.28;;;25.95;;
42084;SDS011;27746;52.228;20.890;2024-03-23T03:56:30;51.65;;;25.10;;
42084;SDS011;27746;52.228;20.890;2024-03-23T03:58:56;55.65;;;26.95;;
42084;SDS011;27746;52.228;20.890;2024-03-23T04:01:23;51.83;;;26.08;;
42084;SDS011;27746;52.228;20.890;2024-03-23T04:03:50;49.33;;;24.98;;
42084;SDS011;27746;52.228;20.890;2024-03-23T04:06:21;52.00;;;26.98;;
42084;SDS011;27746;52.228;20.890;2024-03-23T04:08:48;55.67;;;25.05;;
42084;SDS011;27746;52.228;20.890;2024-03-23T04:11:15;53.50;;;26.83;;
42084;SDS011;27746;52.228;20.890;2024-03-23T04:13:41;59.30;;;27.90;;
42084;SDS011;27746;52.228;20.890;2024-03-23T04:16:08;49.22;;;25.85;;
42084;SDS011;27746;52.228;20.890;2024-03-23T04:18:35;50.65;;;26.80;;
42084;SDS011;27746;52.228;20.890;2024-03-23T04:21:02;56.78;;;27.67;;
42084;SDS011;27746;52.228;20.890;2024-03-23T04:23:30;53.05;;;27.55;;
42084;SDS011;27746;52.228;20.890;2024-03-23T04:26:02;56.53;;;28.10;;
42084;SDS011;27746;52.228;20.890;2024-03-23T04:28:28;49.53;;;25.77;;
42084;SDS011;27746;52.228;20.890;2024-03-23T04:30:55;52.63;;;25.67;;
42084;SDS011;27746;52.228;20.890;2024-03-23T04:33:21;47.10;;;24.45;;
42084;SDS011;27746;52.228;20.890;2024-03-23T04:35:48;52.25;;;26.70;;
42084;SDS011;27746;52.228;20.890;2024-03-23T04:38:15;57.45;;;28.73;;
42084;SDS011;27746;52.228;20.890;2024-03-23T04:40:44;55.92;;;27.55;;
42084;SDS011;27746;52.228;20.890;2024-03-23T04:43:11;55.88;;;27.48;;
42084;SDS011;27746;52.228;20.890;2024-03-23T04:45:38;59.35;;;29.00;;
42084;SDS011;27746;52.228;20.890;2024-03-23T04:48:06;61.50;;;29.70;;
42084;SDS011;27746;52.228;20.890;2024-03-23T04:50:33;52.72;;;27.92;;
42084;SDS011;27746;52.228;20.890;2024-03-23T04:53:01;56.42;;;27.73;;
42084;SDS011;27746;52.228;20.890;2024-03-23T04:55:28;59.38;;;29.92;;
42084;SDS011;27746;52.228;20.890;2024-03-23T04:57:57;67.53;;;30.02;;
42084;SDS011;27746;52.228;20.890;2024-03-23T05:00:23;55.15;;;28.98;;
42084;SDS011;27746;52.228;20.890;2024-03-23T05:02:51;56.08;;;28.13;;
42084;SDS011;27746;52.228;20.890;2024-03-23T05:05:18;64.03;;;29.95;;
42084;SDS011;27746;52.228;20.890;2024-03-23T05:07:44;61.90;;;29.45;;
42084;SDS011;27746;52.228;20.890;2024-03-23T05:10:11;58.25;;;29.13;;
42084;SDS011;27746;52.228;20.890;2024-03-23T05:12:38;58.20;;;29.20;;
42084;SDS011;27746;52.228;20.890;2024-03-23T05:15:07;62.03;;;28.70;;
42084;SDS011;27746;52.228;20.890;2024-03-23T05:17:36;61.10;;;29.67;;
42084;SDS011;27746;52.228;20.890;2024-03-23T05:20:04;62.25;;;29.75;;
42084;SDS011;27746;52.228;20.890;2024-03-23T05:22:34;60.85;;;30.55;;
42084;SDS011;27746;52.228;20.890;2024-03-23T05:25:01;60.65;;;31.45;;
42084;SDS011;27746;52.228;20.890;2024-03-23T05:27:29;68.68;;;31.58;;
42084;SDS011;27746;52.228;20.890;2024-03-23T05:29:56;68.53;;;32.22;;
42084;SDS011;27746;52.228;20.890;2024-03-23T05:32:24;64.22;;;30.52;;
42084;SDS011;27746;52.228;20.890;2024-03-23T05:34:53;66.93;;;32.95;;
42084;SDS011;27746;52.228;20.890;2024-03-23T05:37:21;68.05;;;29.75;;
42084;SDS011;27746;52.228;20.890;2024-03-23T05:39:48;69.75;;;33.13;;
42084;SDS011;27746;52.228;20.890;2024-03-23T05:42:15;63.38;;;30.85;;
42084;SDS011;27746;52.228;20.890;2024-03-23T05:44:43;64.20;;;31.42;;
42084;SDS011;27746;52.228;20.890;2024-03-23T05:47:09;70.60;;;33.00;;
42084;SDS011;27746;52.228;20.890;2024-03-23T05:49:39;66.35;;;32.05;;
42084;SDS011;27746;52.228;20.890;2024-03-23T05:52:06;62.50;;;33.83;;
42084;SDS011;27746;52.228;20.890;2024-03-23T05:54:33;59.58;;;31.17;;
42084;SDS011;27746;52.228;20.890;2024-03-23T05:57:00;67.78;;;32.08;;
42084;SDS011;27746;52.228;20.890;2024-03-23T05:59:27;72.68;;;33.65;;
42084;SDS011;27746;52.228;20.890;2024-03-23T06:01:54;63.30;;;31.40;;
42084;SDS011;27746;52.228;20.890;2024-03-23T06:04:21;71.18;;;36.53;;
42084;SDS011;27746;52.228;20.890;2024-03-23T06:06:49;75.65;;;34.95;;
42084;SDS011;27746;52.228;20.890;2024-03-23T06:09:18;83.40;;;37.75;;
42084;SDS011;27746;52.228;20.890;2024-03-23T06:11:44;71.25;;;36.00;;
42084;SDS011;27746;52.228;20.890;2024-03-23T06:14:11;75.03;;;35.03;;
42084;SDS011;27746;52.228;20.890;2024-03-23T06:16:38;74.30;;;36.45;;
42084;SDS011;27746;52.228;20.890;2024-03-23T06:19:07;71.30;;;35.67;;
42084;SDS011;27746;52.228;20.890;2024-03-23T06:21:33;72.20;;;34.90;;
42084;SDS011;27746;52.228;20.890;2024-03-23T06:24:02;64.50;;;32.50;;
42084;SDS011;27746;52.228;20.890;2024-03-23T06:26:28;63.40;;;31.60;;
42084;SDS011;27746;52.228;20.890;2024-03-23T06:28:55;67.90;;;33.83;;
42084;SDS011;27746;52.228;20.890;2024-03-23T06:31:21;67.47;;;33.80;;
42084;SDS011;27746;52.228;20.890;2024-03-23T06:33:49;75.70;;;34.10;;
42084;SDS011;27746;52.228;20.890;2024-03-23T06:36:15;59.05;;;29.75;;
42084;SDS011;27746;52.228;20.890;2024-03-23T06:38:42;66.47;;;32.78;;
42084;SDS011;27746;52.228;20.890;2024-03-23T06:41:10;63.75;;;31.92;;
42084;SDS011;27746;52.228;20.890;2024-03-23T06:43:37;65.45;;;31.17;;
42084;SDS011;27746;52.228;20.890;2024-03-23T06:46:04;61.28;;;29.80;;
42084;SDS011;27746;52.228;20.890;2024-03-23T06:48:31;60.00;;;29.50;;
42084;SDS011;27746;52.228;20.890;2024-03-23T06:50:58;56.08;;;27.80;;
42084;SDS011;27746;52.228;20.890;2024-03-23T06:53:24;54.60;;;28.05;;
42084;SDS011;27746;52.228;20.890;2024-03-23T06:55:54;52.58;;;26.27;;
42084;SDS011;27746;52.228;20.890;2024-03-23T06:58:23;53.38;;;26.42;;
42084;SDS011;27746;52.228;20.890;2024-03-23T07:00:50;50.95;;;25.02;;
42084;SDS011;27746;52.228;20.890;2024-03-23T07:03:16;51.42;;;25.95;;
42084;SDS011;27746;52.228;20.890;2024-03-23T07:05:43;47.90;;;25.65;;
42084;SDS011;27746;52.228;20.890;2024-03-23T07:08:11;51.20;;;25.75;;
42084;SDS011;27746;52.228;20.890;2024-03-23T07:10:39;46.47;;;25.02;;
42084;SDS011;27746;52.228;20.890;2024-03-23T07:13:05;51.55;;;24.65;;
42084;SDS011;27746;52.228;20.890;2024-03-23T07:15:33;52.33;;;26.52;;
42084;SDS011;27746;52.228;20.890;2024-03-23T07:18:00;54.83;;;26.52;;
42084;SDS011;27746;52.228;20.890;2024-03-23T07:20:27;51.30;;;24.30;;
42084;SDS011;27746;52.228;20.890;2024-03-23T07:22:55;52.50;;;25.10;;
42084;SDS011;27746;52.228;20.890;2024-03-23T07:25:22;54.30;;;26.08;;
42084;SDS011;27746;52.228;20.890;2024-03-23T07:27:50;46.85;;;23.88;;
42084;SDS011;27746;52.228;20.890;2024-03-23T07:30:17;50.30;;;25.00;;
42084;SDS011;27746;52.228;20.890;2024-03-23T07:32:45;47.00;;;22.70;;
42084;SDS011;27746;52.228;20.890;2024-03-23T07:35:12;46.78;;;22.23;;
42084;SDS011;27746;52.228;20.890;2024-03-23T07:37:38;53.35;;;26.75;;
42084;SDS011;27746;52.228;20.890;2024-03-23T07:40:06;48.10;;;23.98;;
42084;SDS011;27746;52.228;20.890;2024-03-23T07:42:34;47.40;;;24.13;;
42084;SDS011;27746;52.228;20.890;2024-03-23T07:45:00;46.53;;;23.40;;
42084;SDS011;27746;52.228;20.890;2024-03-23T07:47:27;50.83;;;24.35;;
42084;SDS011;27746;52.228;20.890;2024-03-23T07:49:55;46.30;;;23.17;;
42084;SDS011;27746;52.228;20.890;2024-03-23T07:52:22;49.92;;;22.40;;
42084;SDS011;27746;52.228;20.890;2024-03-23T07:54:49;47.30;;;24.65;;
42084;SDS011;27746;52.228;20.890;2024-03-23T07:57:16;45.22;;;22.05;;
42084;SDS011;27746;52.228;20.890;2024-03-23T07:59:42;42.22;;;22.13;;
42084;SDS011;27746;52.228;20.890;2024-03-23T08:02:09;43.75;;;22.52;;
42084;SDS011;27746;52.228;20.890;2024-03-23T08:04:36;47.60;;;24.23;;
42084;SDS011;27746;52.228;20.890;2024-03-23T08:07:05;49.45;;;23.25;;
42084;SDS011;27746;52.228;20.890;2024-03-23T08:09:31;39.42;;;22.30;;
42084;SDS011;27746;52.228;20.890;2024-03-23T08:11:58;42.58;;;22.70;;
42084;SDS011;27746;52.228;20.890;2024-03-23T08:14:24;42.72;;;23.25;;
42084;SDS011;27746;52.228;20.890;2024-03-23T08:16:51;46.65;;;23.13;;
42084;SDS011;27746;52.228;20.890;2024-03-23T08:19:18;43.95;;;21.98;;
42084;SDS011;27746;52.228;20.890;2024-03-23T08:21:45;38.45;;;21.50;;
42084;SDS011;27746;52.228;20.890;2024-03-23T08:24:13;43.13;;;22.20;;
42084;SDS011;27746;52.228;20.890;2024-03-23T08:26:40;38.83;;;21.17;;
42084;SDS011;27746;52.228;20.890;2024-03-23T08:29:06;42.67;;;21.95;;
42084;SDS011;27746;52.228;20.890;2024-03-23T08:31:33;40.10;;;21.17;;
42084;SDS011;27746;52.228;20.890;2024-03-23T08:33:59;39.88;;;22.15;;
42084;SDS011;27746;52.228;20.890;2024-03-23T08:36:26;40.78;;;20.40;;
42084;SDS011;27746;52.228;20.890;2024-03-23T08:38:53;38.33;;;21.10;;
42084;SDS011;27746;52.228;20.890;2024-03-23T08:41:21;38.83;;;20.92;;
42084;SDS011;27746;52.228;20.890;2024-03-23T08:43:47;37.92;;;20.65;;
42084;SDS011;27746;52.228;20.890;2024-03-23T08:46:15;36.20;;;19.25;;
42084;SDS011;27746;52.228;20.890;2024-03-23T08:48:43;32.60;;;18.02;;
42084;SDS011;27746;52.228;20.890;2024-03-23T08:51:10;29.00;;;16.75;;
42084;SDS011;27746;52.228;20.890;2024-03-23T08:53:37;28.92;;;16.30;;
42084;SDS011;27746;52.228;20.890;2024-03-23T08:56:05;30.30;;;15.77;;
42084;SDS011;27746;52.228;20.890;2024-03-23T08:58:33;31.70;;;16.80;;
42084;SDS011;27746;52.228;20.890;2024-03-23T09:01:03;25.95;;;14.90;;
42084;SDS011;27746;52.228;20.890;2024-03-23T09:03:29;29.17;;;15.20;;
42084;SDS011;27746;52.228;20.890;2024-03-23T09:05:56;26.48;;;14.98;;
42084;SDS011;27746;52.228;20.890;2024-03-23T09:08:23;28.20;;;14.85;;
42084;SDS011;27746;52.228;20.890;2024-03-23T09:10:51;27.33;;;15.18;;
42084;SDS011;27746;52.228;20.890;2024-03-23T09:13:23;25.85;;;13.43;;
42084;SDS011;27746;52.228;20.890;2024-03-23T09:15:52;24.23;;;13.50;;
42084;SDS011;27746;52.228;20.890;2024-03-23T09:18:21;25.60;;;12.82;;
42084;SDS011;27746;52.228;20.890;2024-03-23T09:20:49;21.90;;;11.88;;
42084;SDS011;27746;52.228;20.890;2024-03-23T09:23:15;18.00;;;11.32;;
42084;SDS011;27746;52.228;20.890;2024-03-23T09:25:42;19.00;;;11.45;;
42084;SDS011;27746;52.228;20.890;2024-03-23T09:28:14;23.85;;;11.80;;
42084;SDS011;27746;52.228;20.890;2024-03-23T09:30:44;22.27;;;11.25;;
42084;SDS011;27746;52.228;20.890;2024-03-23T09:33:12;25.70;;;11.95;;
42084;SDS011;27746;52.228;20.890;2024-03-23T09:35:40;23.85;;;12.30;;
42084;SDS011;27746;52.228;20.890;2024-03-23T09:38:06;21.08;;;11.77;;
42084;SDS011;27746;52.228;20.890;2024-03-23T09:40:34;18.08;;;11.27;;
42084;SDS011;27746;52.228;20.890;2024-03-23T09:43:00;20.52;;;11.70;;
42084;SDS011;27746;52.228;20.890;2024-03-23T09:45:28;21.48;;;11.68;;
42084;SDS011;27746;52.228;20.890;2024-03-23T09:47:54;20.80;;;10.85;;
42084;SDS011;27746;52.228;20.890;2024-03-23T09:50:23;19.42;;;10.43;;
42084;SDS011;27746;52.228;20.890;2024-03-23T09:52:49;20.15;;;10.73;;
42084;SDS011;27746;52.228;20.890;2024-03-23T09:55:17;18.00;;;11.00;;
42084;SDS011;27746;52.228;20.890;2024-03-23T09:57:43;20.23;;;10.10;;
42084;SDS011;27746;52.228;20.890;2024-03-23T10:00:10;18.15;;;9.80;;
42084;SDS011;27746;52.228;20.890;2024-03-23T10:02:37;18.05;;;10.10;;
42084;SDS011;27746;52.228;20.890;2024-03-23T10:05:05;18.92;;;9.73;;
42084;SDS011;27746;52.228;20.890;2024-03-23T10:07:48;18.33;;;9.55;;
42084;SDS011;27746;52.228;20.890;2024-03-23T10:10:15;17.17;;;8.90;;
42084;SDS011;27746;52.228;20.890;2024-03-23T10:12:43;20.17;;;8.40;;
42084;SDS011;27746;52.228;20.890;2024-03-23T10:15:15;14.40;;;8.82;;
42084;SDS011;27746;52.228;20.890;2024-03-23T10:17:43;14.57;;;8.55;;
42084;SDS011;27746;52.228;20.890;2024-03-23T10:20:11;15.43;;;9.02;;
42084;SDS011;27746;52.228;20.890;2024-03-23T10:22:37;15.82;;;8.32;;
42084;SDS011;27746;52.228;20.890;2024-03-23T10:25:09;15.20;;;7.80;;
42084;SDS011;27746;52.228;20.890;2024-03-23T10:27:36;24.95;;;13.73;;
42084;SDS011;27746;52.228;20.890;2024-03-23T10:30:10;15.13;;;7.35;;
42084;SDS011;27746;52.228;20.890;2024-03-23T10:37:50;15.05;;;8.35;;
42084;SDS011;27746;52.228;20.890;2024-03-23T10:40:20;13.02;;;7.15;;
42084;SDS011;27746;52.228;20.890;2024-03-23T10:42:46;11.77;;;7.03;;
42084;SDS011;27746;52.228;20.890;2024-03-23T10:45:14;12.98;;;7.00;;
42084;SDS011;27746;52.228;20.890;2024-03-23T10:47:40;13.27;;;7.78;;
42084;SDS011;27746;52.228;20.890;2024-03-23T10:50:08;13.18;;;7.13;;
42084;SDS011;27746;52.228;20.890;2024-03-23T10:52:34;14.50;;;7.40;;
42084;SDS011;27746;52.228;20.890;2024-03-23T10:55:02;12.48;;;7.38;;
42084;SDS011;27746;52.228;20.890;2024-03-23T10:57:37;12.48;;;6.78;;
42084;SDS011;27746;52.228;20.890;2024-03-23T11:00:06;11.88;;;7.38;;
42084;SDS011;27746;52.228;20.890;2024-03-23T11:02:33;10.85;;;6.60;;
42084;SDS011;27746;52.228;20.890;2024-03-23T11:04:59;12.15;;;6.75;;
42084;SDS011;27746;52.228;20.890;2024-03-23T11:07:30;14.05;;;7.03;;
42084;SDS011;27746;52.228;20.890;2024-03-23T11:09:57;11.38;;;6.53;;
42084;SDS011;27746;52.228;20.890;2024-03-23T11:12:28;14.25;;;7.15;;
42084;SDS011;27746;52.228;20.890;2024-03-23T11:14:59;11.15;;;6.57;;
42084;SDS011;27746;52.228;20.890;2024-03-23T11:17:27;14.13;;;6.32;;
42084;SDS011;27746;52.228;20.890;2024-03-23T11:19:53;9.88;;;5.35;;
42084;SDS011;27746;52.228;20.890;2024-03-23T11:22:40;10.38;;;5.65;;
42084;SDS011;27746;52.228;20.890;2024-03-23T11:25:13;10.05;;;5.03;;
42084;SDS011;27746;52.228;20.890;2024-03-23T11:27:40;10.30;;;6.05;;
42084;SDS011;27746;52.228;20.890;2024-03-23T11:30:12;10.10;;;5.85;;
42084;SDS011;27746;52.228;20.890;2024-03-23T11:32:40;10.25;;;6.07;;
42084;SDS011;27746;52.228;20.890;2024-03-23T11:35:06;7.78;;;5.20;;
42084;SDS011;27746;52.228;20.890;2024-03-23T11:37:35;9.05;;;5.72;;
42084;SDS011;27746;52.228;20.890;2024-03-23T11:40:05;9.38;;;5.63;;
42084;SDS011;27746;52.228;20.890;2024-03-23T11:42:43;10.43;;;5.72;;
42084;SDS011;27746;52.228;20.890;2024-03-23T11:45:10;9.27;;;5.75;;
42084;SDS011;27746;52.228;20.890;2024-03-23T11:47:38;8.65;;;5.35;;
42084;SDS011;27746;52.228;20.890;2024-03-23T11:50:04;10.65;;;5.53;;
42084;SDS011;27746;52.228;20.890;2024-03-23T11:52:31;9.25;;;5.57;;
42084;SDS011;27746;52.228;20.890;2024-03-23T11:55:03;10.85;;;5.47;;
42084;SDS011;27746;52.228;20.890;2024-03-23T11:57:30;13.02;;;5.95;;
42084;SDS011;27746;52.228;20.890;2024-03-23T11:59:56;8.88;;;5.25;;
42084;SDS011;27746;52.228;20.890;2024-03-23T12:02:23;10.80;;;5.75;;
42084;SDS011;27746;52.228;20.890;2024-03-23T12:04:51;15.27;;;6.88;;
42084;SDS011;27746;52.228;20.890;2024-03-23T12:07:19;11.13;;;5.70;;
42084;SDS011;27746;52.228;20.890;2024-03-23T12:09:46;10.25;;;6.68;;
42084;SDS011;27746;52.228;20.890;2024-03-23T12:12:28;13.93;;;6.97;;
42084;SDS011;27746;52.228;20.890;2024-03-23T12:15:01;9.60;;;5.70;;
42084;SDS011;27746;52.228;20.890;2024-03-23T12:17:27;12.45;;;6.45;;
42084;SDS011;27746;52.228;20.890;2024-03-23T12:19:56;11.20;;;6.47;;
42084;SDS011;27746;52.228;20.890;2024-03-23T12:22:22;9.20;;;6.00;;
42084;SDS011;27746;52.228;20.890;2024-03-23T12:24:49;12.52;;;6.18;;
42084;SDS011;27746;52.228;20.890;2024-03-23T12:27:15;11.48;;;6.63;;
42084;SDS011;27746;52.228;20.890;2024-03-23T12:29:42;13.43;;;6.43;;
42084;SDS011;27746;52.228;20.890;2024-03-23T12:32:10;10.55;;;6.45;;
42084;SDS011;27746;52.228;20.890;2024-03-23T12:34:38;12.32;;;6.72;;
42084;SDS011;27746;52.228;20.890;2024-03-23T12:37:05;12.60;;;7.30;;
42084;SDS011;27746;52.228;20.890;2024-03-23T12:39:32;12.52;;;7.38;;
42084;SDS011;27746;52.228;20.890;2024-03-23T12:41:58;12.85;;;6.80;;
42084;SDS011;27746;52.228;20.890;2024-03-23T12:44:24;16.77;;;7.22;;
42084;SDS011;27746;52.228;20.890;2024-03-23T12:46:50;11.00;;;6.88;;
42084;SDS011;27746;52.228;20.890;2024-03-23T12:49:17;11.85;;;6.93;;
42084;SDS011;27746;52.228;20.890;2024-03-23T12:51:46;12.20;;;7.00;;
42084;SDS011;27746;52.228;20.890;2024-03-23T12:54:20;16.15;;;6.88;;
42084;SDS011;27746;52.228;20.890;2024-03-23T12:56:46;13.15;;;6.80;;
42084;SDS011;27746;52.228;20.890;2024-03-23T12:59:13;12.10;;;7.07;;
42084;SDS011;27746;52.228;20.890;2024-03-23T13:01:39;12.13;;;7.25;;
42084;SDS011;27746;52.228;20.890;2024-03-23T13:04:06;14.45;;;7.03;;
42084;SDS011;27746;52.228;20.890;2024-03-23T13:06:32;11.38;;;6.40;;
42084;SDS011;27746;52.228;20.890;2024-03-23T13:08:59;12.93;;;6.80;;
42084;SDS011;27746;52.228;20.890;2024-03-23T13:11:27;11.65;;;7.00;;
42084;SDS011;27746;52.228;20.890;2024-03-23T13:13:54;11.38;;;6.75;;
42084;SDS011;27746;52.228;20.890;2024-03-23T13:16:20;10.45;;;6.05;;
42084;SDS011;27746;52.228;20.890;2024-03-23T13:18:47;16.13;;;7.72;;
42084;SDS011;27746;52.228;20.890;2024-03-23T13:21:13;14.15;;;7.13;;
42084;SDS011;27746;52.228;20.890;2024-03-23T13:23:40;9.13;;;6.30;;
42084;SDS011;27746;52.228;20.890;2024-03-23T13:26:07;12.38;;;6.50;;
42084;SDS011;27746;52.228;20.890;2024-03-23T13:28:35;11.07;;;6.45;;
42084;SDS011;27746;52.228;20.890;2024-03-23T13:31:02;11.07;;;6.40;;
42084;SDS011;27746;52.228;20.890;2024-03-23T13:33:29;12.55;;;6.95;;
42084;SDS011;27746;52.228;20.890;2024-03-23T13:35:57;10.88;;;6.28;;
42084;SDS011;27746;52.228;20.890;2024-03-23T13:38:24;9.45;;;7.00;;
42084;SDS011;27746;52.228;20.890;2024-03-23T13:40:51;17.23;;;8.18;;
42084;SDS011;27746;52.228;20.890;2024-03-23T13:43:18;10.60;;;6.50;;
42084;SDS011;27746;52.228;20.890;2024-03-23T13:45:46;16.95;;;6.53;;
42084;SDS011;27746;52.228;20.890;2024-03-23T13:48:13;10.98;;;6.55;;
42084;SDS011;27746;52.228;20.890;2024-03-23T13:50:39;12.48;;;6.80;;
42084;SDS011;27746;52.228;20.890;2024-03-23T13:53:06;15.57;;;6.90;;
42084;SDS011;27746;52.228;20.890;2024-03-23T13:55:33;13.57;;;7.65;;
42084;SDS011;27746;52.228;20.890;2024-03-23T13:58:00;11.05;;;6.40;;
42084;SDS011;27746;52.228;20.890;2024-03-23T14:00:26;11.93;;;6.30;;
42084;SDS011;27746;52.228;20.890;2024-03-23T14:02:55;11.35;;;6.20;;
42084;SDS011;27746;52.228;20.890;2024-03-23T14:05:21;8.85;;;5.88;;
42084;SDS011;27746;52.228;20.890;2024-03-23T14:07:47;11.18;;;6.40;;
42084;SDS011;27746;52.228;20.890;2024-03-23T14:10:14;12.55;;;6.20;;
42084;SDS011;27746;52.228;20.890;2024-03-23T14:12:41;11.73;;;7.00;;
42084;SDS011;27746;52.228;20.890;2024-03-23T14:15:07;11.82;;;6.07;;
42084;SDS011;27746;52.228;20.890;2024-03-23T14:17:34;10.20;;;6.43;;
42084;SDS011;27746;52.228;20.890;2024-03-23T14:20:03;11.85;;;6.63;;
42084;SDS011;27746;52.228;20.890;2024-03-23T14:22:30;11.30;;;6.20;;
42084;SDS011;27746;52.228;20.890;2024-03-23T14:24:57;11.82;;;5.78;;
42084;SDS011;27746;52.228;20.890;2024-03-23T14:27:24;9.73;;;5.82;;
42084;SDS011;27746;52.228;20.890;2024-03-23T14:29:50;10.48;;;5.13;;
42084;SDS011;27746;52.228;20.890;2024-03-23T14:32:18;8.45;;;5.68;;
42084;SDS011;27746;52.228;20.890;2024-03-23T14:34:43;8.75;;;6.03;;
42084;SDS011;27746;52.228;20.890;2024-03-23T14:37:11;12.43;;;6.60;;
42084;SDS011;27746;52.228;20.890;2024-03-23T14:39:37;10.32;;;6.30;;
42084;SDS011;27746;52.228;20.890;2024-03-23T14:42:06;10.45;;;5.63;;
42084;SDS011;27746;52.228;20.890;2024-03-23T14:44:33;9.82;;;6.35;;
42084;SDS011;27746;52.228;20.890;2024-03-23T14:47:00;13.10;;;6.75;;
42084;SDS011;27746;52.228;20.890;2024-03-23T14:49:26;9.95;;;6.18;;
42084;SDS011;27746;52.228;20.890;2024-03-23T14:51:53;11.55;;;6.93;;
42084;SDS011;27746;52.228;20.890;2024-03-23T14:54:20;17.05;;;6.85;;
42084;SDS011;27746;52.228;20.890;2024-03-23T14:56:47;15.98;;;7.80;;
42084;SDS011;27746;52.228;20.890;2024-03-23T14:59:13;12.43;;;6.88;;
42084;SDS011;27746;52.228;20.890;2024-03-23T15:01:40;12.57;;;7.38;;
42084;SDS011;27746;52.228;20.890;2024-03-23T15:04:06;13.63;;;7.38;;
42084;SDS011;27746;52.228;20.890;2024-03-23T15:06:33;14.75;;;8.82;;
42084;SDS011;27746;52.228;20.890;2024-03-23T15:08:59;21.13;;;8.45;;
42084;SDS011;27746;52.228;20.890;2024-03-23T15:11:27;16.17;;;9.07;;
42084;SDS011;27746;52.228;20.890;2024-03-23T15:13:54;18.10;;;10.10;;